createdAt,value
2022-10-21T00:04:11.588Z,59.38
2022-10-21T00:06:38.104Z,59.48
2022-10-21T00:09:04.756Z,59.52
2022-10-21T00:11:31.370Z,59.57
2022-10-21T00:13:57.807Z,59.43
2022-10-21T00:16:24.360Z,59.48
2022-10-21T00:18:50.821Z,59.56
2022-10-21T00:21:20.677Z,59.54
2022-10-21T00:23:47.949Z,59.53
2022-10-21T00:26:15.337Z,59.63
2022-10-21T00:28:41.913Z,59.78
2022-10-21T00:31:12.975Z,59.70
2022-10-21T00:33:39.508Z,59.62
2022-10-21T00:36:07.630Z,59.59
2022-10-21T00:38:34.862Z,59.71
2022-10-21T00:41:01.583Z,59.64
2022-10-21T00:43:28.634Z,59.69
2022-10-21T00:46:00.179Z,59.69
2022-10-21T00:48:35.768Z,59.71
2022-10-21T00:51:13.243Z,59.83
2022-10-21T00:53:42.544Z,59.74
2022-10-21T00:56:15.590Z,59.83
2022-10-21T00:58:43.972Z,59.80
2022-10-21T01:01:10.856Z,59.81
2022-10-21T01:03:37.421Z,59.96
2022-10-21T01:06:07.606Z,60.05
2022-10-21T01:08:34.381Z,60.01
2022-10-21T01:11:01.487Z,60.13
2022-10-21T01:13:27.909Z,60.00
2022-10-21T01:15:56.860Z,60.14
2022-10-21T01:18:42.126Z,60.07
2022-10-21T01:21:14.654Z,59.91
2022-10-21T01:23:47.105Z,59.99
2022-10-21T01:26:31.753Z,59.92
2022-10-21T01:29:24.589Z,59.98
2022-10-21T01:32:09.690Z,59.98
2022-10-21T01:34:36.136Z,59.90
2022-10-21T01:37:02.534Z,60.02
2022-10-21T01:39:35.045Z,59.99
2022-10-21T01:44:55.153Z,60.16
2022-10-21T01:47:29.762Z,60.24
2022-10-21T01:49:59.884Z,60.28
2022-10-21T01:52:27.175Z,60.04
2022-10-21T01:54:56.310Z,60.32
2022-10-21T01:57:24.902Z,60.31
2022-10-21T01:59:51.950Z,60.47
2022-10-21T02:02:20.136Z,60.44
2022-10-21T02:04:47.838Z,60.43
2022-10-21T02:07:14.297Z,60.57
2022-10-21T02:09:40.739Z,60.36
2022-10-21T02:12:07.802Z,60.36
2022-10-21T02:14:40.403Z,60.06
2022-10-21T02:17:09.149Z,60.13
2022-10-21T02:19:35.569Z,59.99
2022-10-21T02:22:04.298Z,59.99
2022-10-21T02:24:39.135Z,59.97
2022-10-21T02:27:05.825Z,59.91
2022-10-21T02:29:34.579Z,60.18
2022-10-21T02:32:11.840Z,60.02
2022-10-21T02:34:38.221Z,60.02
2022-10-21T02:37:17.015Z,60.21
2022-10-21T02:39:47.980Z,60.02
2022-10-21T02:42:16.906Z,60.05
2022-10-21T02:44:43.480Z,60.01
2022-10-21T02:49:41.233Z,60.07
2022-10-21T02:52:07.870Z,60.16
2022-10-21T02:54:34.314Z,60.24
2022-10-21T02:57:00.864Z,60.17
2022-10-21T02:59:27.296Z,60.07
2022-10-21T03:01:53.753Z,59.95
2022-10-21T03:04:20.214Z,60.18
2022-10-21T03:06:46.679Z,59.97
2022-10-21T03:09:13.379Z,60.19
2022-10-21T03:11:39.826Z,60.12
2022-10-21T03:14:06.510Z,60.04
2022-10-21T03:16:32.987Z,60.10
2022-10-21T03:18:59.489Z,60.21
2022-10-21T03:21:26.055Z,60.16
2022-10-21T03:23:52.495Z,60.41
2022-10-21T03:26:19.133Z,60.47
2022-10-21T03:28:45.567Z,60.41
2022-10-21T03:31:11.992Z,60.60
2022-10-21T03:33:38.484Z,60.71
2022-10-21T03:36:05.304Z,60.68
2022-10-21T03:38:31.732Z,60.74
2022-10-21T03:40:58.148Z,60.77
2022-10-21T03:43:24.597Z,60.70
2022-10-21T03:45:51.105Z,60.82
2022-10-21T03:48:18.411Z,60.64
2022-10-21T03:50:44.814Z,60.93
2022-10-21T03:53:24.421Z,60.87
2022-10-21T03:55:57.247Z,60.84
2022-10-21T03:58:25.343Z,60.78
2022-10-21T04:00:53.009Z,60.90
2022-10-21T04:03:19.693Z,60.80
2022-10-21T04:05:46.136Z,60.85
2022-10-21T04:08:12.611Z,60.88
2022-10-21T04:10:39.117Z,61.14
2022-10-21T04:13:05.648Z,61.02
2022-10-21T04:15:32.123Z,61.03
2022-10-21T04:17:58.582Z,60.86
2022-10-21T04:20:25.097Z,60.89
2022-10-21T04:22:51.582Z,61.06
2022-10-21T04:25:18.167Z,61.03
2022-10-21T04:27:44.605Z,60.92
2022-10-21T04:30:11.207Z,60.77
2022-10-21T04:32:38.009Z,61.16
2022-10-21T04:35:05.009Z,60.88
2022-10-21T04:37:31.507Z,61.04
2022-10-21T04:39:58.036Z,61.12
2022-10-21T04:42:24.612Z,61.20
2022-10-21T04:44:51.162Z,61.07
2022-10-21T04:47:17.714Z,61.19
2022-10-21T04:49:44.152Z,61.09
2022-10-21T04:52:10.647Z,61.28
2022-10-21T04:54:37.170Z,61.30
2022-10-21T04:57:04.004Z,61.24
2022-10-21T04:59:30.497Z,61.32
2022-10-21T05:01:56.957Z,61.36
2022-10-21T05:04:23.540Z,61.37
2022-10-21T05:06:49.988Z,61.57
2022-10-21T05:09:16.739Z,61.49
2022-10-21T05:11:43.363Z,61.55
2022-10-21T05:14:09.807Z,61.74
2022-10-21T05:16:36.488Z,61.45
2022-10-21T05:19:02.919Z,61.75
2022-10-21T05:21:29.415Z,61.52
2022-10-21T05:23:55.918Z,61.59
2022-10-21T05:26:24.218Z,61.73
2022-10-21T05:28:50.707Z,61.62
2022-10-21T05:31:17.136Z,61.82
2022-10-21T05:33:43.604Z,61.67
2022-10-21T05:36:10.047Z,61.61
2022-10-21T05:38:36.656Z,61.57
2022-10-21T05:41:03.242Z,61.41
2022-10-21T05:43:29.794Z,61.45
2022-10-21T05:45:56.302Z,61.37
2022-10-21T05:48:22.855Z,61.38
2022-10-21T05:50:52.136Z,61.56
2022-10-21T05:53:18.639Z,61.49
2022-10-21T05:55:45.288Z,61.39
2022-10-21T05:58:11.774Z,61.33
2022-10-21T06:00:38.338Z,61.66
2022-10-21T06:03:04.813Z,61.59
2022-10-21T06:05:31.353Z,61.51
2022-10-21T06:07:57.815Z,61.63
2022-10-21T06:10:28.229Z,61.59
2022-10-21T06:12:55.638Z,61.72
2022-10-21T06:15:22.065Z,61.73
2022-10-21T06:17:48.639Z,61.72
2022-10-21T06:20:15.089Z,61.67
2022-10-21T06:22:41.628Z,61.54
2022-10-21T06:25:08.527Z,61.60
2022-10-21T06:27:35.275Z,61.59
2022-10-21T06:30:01.840Z,61.34
2022-10-21T06:32:29.206Z,61.64
2022-10-21T06:34:55.901Z,61.62
2022-10-21T06:37:22.351Z,61.86
2022-10-21T06:39:48.806Z,61.75
2022-10-21T06:42:16.203Z,61.64
2022-10-21T06:44:42.744Z,61.65
2022-10-21T06:47:09.210Z,61.58
2022-10-21T06:49:35.696Z,61.52
2022-10-21T06:52:02.132Z,61.55
2022-10-21T06:54:28.752Z,61.50
2022-10-21T06:56:55.401Z,61.61
2022-10-21T06:59:22.096Z,61.56
2022-10-21T07:01:59.660Z,61.55
2022-10-21T07:04:27.360Z,61.54
2022-10-21T07:06:53.807Z,61.55
2022-10-21T07:09:20.448Z,61.51
2022-10-21T07:11:47.069Z,61.52
2022-10-21T07:14:13.591Z,61.44
2022-10-21T07:16:40.031Z,61.61
2022-10-21T07:19:06.523Z,61.66
2022-10-21T07:21:33.497Z,61.69
2022-10-21T07:24:00.777Z,61.87
2022-10-21T07:26:28.311Z,61.68
2022-10-21T07:28:54.997Z,61.63
2022-10-21T07:31:21.910Z,61.60
2022-10-21T07:33:49.052Z,61.73
2022-10-21T07:36:25.806Z,61.73
2022-10-21T07:38:53.457Z,61.68
2022-10-21T07:41:22.114Z,61.68
2022-10-21T07:43:48.710Z,61.54
2022-10-21T07:46:15.612Z,61.76
2022-10-21T07:48:42.110Z,61.61
2022-10-21T07:51:09.994Z,61.64
2022-10-21T07:53:36.636Z,61.56
2022-10-21T07:56:12.057Z,61.74
2022-10-21T07:58:38.907Z,61.84
2022-10-21T08:01:07.109Z,61.79
2022-10-21T08:03:33.871Z,61.99
2022-10-21T08:06:00.788Z,61.90
2022-10-21T08:08:28.232Z,62.01
2022-10-21T08:10:55.278Z,62.06
2022-10-21T08:13:22.014Z,62.18
2022-10-21T08:15:49.983Z,62.23
2022-10-21T08:18:16.806Z,62.42
2022-10-21T08:20:44.675Z,62.28
2022-10-21T08:23:12.169Z,62.33
2022-10-21T08:25:39.356Z,62.36
2022-10-21T08:28:06.638Z,62.50
2022-10-21T08:30:33.484Z,62.51
2022-10-21T08:32:59.984Z,62.45
2022-10-21T08:35:27.510Z,62.39
2022-10-21T08:37:54.119Z,62.29
2022-10-21T08:40:20.689Z,62.13
2022-10-21T08:42:47.820Z,62.34
2022-10-21T08:45:41.271Z,62.05
2022-10-21T08:48:13.243Z,62.15
2022-10-21T08:50:42.719Z,61.85
2022-10-21T08:53:14.820Z,62.21
2022-10-21T08:55:42.851Z,62.01
2022-10-21T08:58:16.432Z,62.01
2022-10-21T09:00:49.028Z,61.93
2022-10-21T09:03:23.941Z,62.04
2022-10-21T09:06:01.791Z,61.83
2022-10-21T09:08:34.689Z,61.96
2022-10-21T09:11:14.119Z,62.04
2022-10-21T09:13:55.634Z,61.83
2022-10-21T09:16:34.338Z,61.84
2022-10-21T09:19:00.832Z,61.76
2022-10-21T09:21:47.147Z,61.78
2022-10-21T09:24:24.940Z,61.72
2022-10-21T09:26:52.935Z,61.80
2022-10-21T09:29:25.867Z,61.77
2022-10-21T09:31:57.300Z,61.56
2022-10-21T09:34:40.487Z,61.69
2022-10-21T09:37:08.458Z,61.59
2022-10-21T09:39:37.691Z,61.73
2022-10-21T09:42:11.488Z,61.48
2022-10-21T09:44:40.807Z,61.29
2022-10-21T09:47:21.898Z,61.64
2022-10-21T09:50:06.987Z,61.93
2022-10-21T09:52:35.948Z,61.62
2022-10-21T09:55:03.892Z,61.61
2022-10-21T09:57:33.889Z,61.43
2022-10-21T10:00:01.419Z,61.92
2022-10-21T10:02:28.227Z,61.63
2022-10-21T10:04:54.733Z,61.62
2022-10-21T10:07:41.416Z,61.68
2022-10-21T10:10:26.381Z,61.68
2022-10-21T10:12:58.132Z,61.87
2022-10-21T10:15:32.380Z,61.61
2022-10-21T10:18:00.014Z,61.93
2022-10-21T10:20:26.959Z,61.88
2022-10-21T10:23:07.975Z,61.93
2022-10-21T10:25:36.304Z,61.94
2022-10-21T10:28:08.826Z,62.03
2022-10-21T10:30:41.421Z,62.07
2022-10-21T10:33:16.021Z,62.21
2022-10-21T10:35:47.586Z,62.10
2022-10-21T10:38:40.395Z,61.96
2022-10-21T10:41:15.541Z,62.00
2022-10-21T10:43:54.890Z,61.72
2022-10-21T10:46:32.496Z,61.54
2022-10-21T10:49:04.545Z,61.46
2022-10-21T10:51:35.017Z,61.43
2022-10-21T10:54:07.763Z,61.83
2022-10-21T10:56:52.148Z,61.63
2022-10-21T10:59:34.646Z,61.62
2022-10-21T11:02:10.411Z,61.45
2022-10-21T11:04:42.065Z,61.63
2022-10-21T11:07:14.131Z,61.66
2022-10-21T11:09:40.720Z,61.67
2022-10-21T11:12:15.695Z,61.52
2022-10-21T11:14:42.331Z,61.67
2022-10-21T11:17:16.949Z,61.59
2022-10-21T11:19:46.383Z,61.46
2022-10-21T11:22:13.424Z,61.48
2022-10-21T11:24:59.679Z,61.82
2022-10-21T11:27:33.617Z,61.63
2022-10-21T11:30:00.174Z,61.52
2022-10-21T11:32:26.864Z,61.97
2022-10-21T11:35:01.247Z,61.70
2022-10-21T11:37:34.969Z,61.80
2022-10-21T11:40:13.830Z,62.01
2022-10-21T11:42:42.338Z,61.95
2022-10-21T11:45:12.218Z,62.13
2022-10-21T11:47:46.219Z,62.03
2022-10-21T11:50:23.657Z,61.77
2022-10-21T11:53:12.579Z,61.86
2022-10-21T11:55:53.544Z,61.83
2022-10-21T11:58:22.797Z,62.01
2022-10-21T12:00:56.131Z,61.99
2022-10-21T12:03:22.612Z,62.01
2022-10-21T12:05:52.249Z,62.08
2022-10-21T12:08:27.666Z,62.19
2022-10-21T12:11:03.429Z,61.85
2022-10-21T12:13:32.800Z,61.95
2022-10-21T12:16:05.526Z,62.22
2022-10-21T12:18:33.961Z,62.21
2022-10-21T12:21:00.959Z,62.44
2022-10-21T12:23:29.903Z,62.62
2022-10-21T12:26:09.706Z,62.50
2022-10-21T12:28:39.097Z,63.09
2022-10-21T12:31:19.059Z,62.86
2022-10-21T12:33:47.943Z,62.94
2022-10-21T12:36:16.679Z,62.54
2022-10-21T12:38:56.466Z,62.97
2022-10-21T12:41:32.236Z,62.59
2022-10-21T12:44:01.466Z,62.68
2022-10-21T12:46:29.659Z,62.85
2022-10-21T12:48:56.823Z,62.89
2022-10-21T12:51:24.675Z,62.87
2022-10-21T12:53:55.393Z,62.75
2022-10-21T12:56:33.822Z,62.71
2022-10-21T12:59:06.888Z,63.03
2022-10-21T13:01:36.656Z,62.97
2022-10-21T13:04:03.200Z,63.20
2022-10-21T13:06:52.922Z,63.07
2022-10-21T13:09:37.933Z,62.85
2022-10-21T13:12:10.372Z,62.85
2022-10-21T13:14:47.062Z,62.62
2022-10-21T13:17:26.962Z,62.92
2022-10-21T13:19:54.966Z,63.28
2022-10-21T13:22:23.327Z,62.94
2022-10-21T13:24:50.089Z,62.78
2022-10-21T13:27:25.603Z,62.93
2022-10-21T13:29:52.591Z,62.76
2022-10-21T13:32:24.712Z,62.40
2022-10-21T13:34:51.502Z,62.83
2022-10-21T13:37:35.373Z,62.51
2022-10-21T13:40:07.945Z,62.67
2022-10-21T13:42:40.573Z,62.83
2022-10-21T13:45:14.675Z,62.76
2022-10-21T13:47:41.419Z,62.96
2022-10-21T13:50:13.336Z,62.74
2022-10-21T13:52:42.553Z,62.41
2022-10-21T13:55:17.069Z,63.01
2022-10-21T13:57:47.214Z,62.73
2022-10-21T14:00:40.540Z,62.82
2022-10-21T14:03:07.338Z,62.75
2022-10-21T14:05:46.218Z,62.53
2022-10-21T14:08:24.681Z,62.81
2022-10-21T14:10:51.504Z,62.57
2022-10-21T14:13:20.633Z,62.78
2022-10-21T14:15:48.604Z,62.73
2022-10-21T14:18:41.407Z,62.69
2022-10-21T14:21:13.970Z,62.52
2022-10-21T14:23:41.906Z,62.70
2022-10-21T14:26:08.838Z,62.79
2022-10-21T14:28:36.819Z,62.58
2022-10-21T14:33:34.669Z,62.53
2022-10-21T14:36:12.676Z,62.69
2022-10-21T14:38:43.628Z,62.68
2022-10-21T14:41:15.600Z,62.82
2022-10-21T14:43:43.354Z,62.91
2022-10-21T14:46:10.460Z,63.07
2022-10-21T14:48:45.267Z,63.15
2022-10-21T14:51:17.627Z,63.07
2022-10-21T14:53:46.968Z,63.48
2022-10-21T14:56:18.191Z,63.27
2022-10-21T14:58:47.078Z,63.04
2022-10-21T15:01:16.958Z,63.30
2022-10-21T15:03:47.901Z,63.02
2022-10-21T15:06:14.433Z,63.25
2022-10-21T15:08:56.306Z,62.84
2022-10-21T15:11:25.876Z,63.03
2022-10-21T15:13:59.947Z,63.25
2022-10-21T15:16:27.849Z,62.92
2022-10-21T15:18:54.974Z,63.01
2022-10-21T15:21:34.978Z,63.11
2022-10-21T15:24:02.082Z,62.86
2022-10-21T15:26:31.670Z,62.88
2022-10-21T15:28:58.183Z,62.90
2022-10-21T15:31:26.358Z,62.84
2022-10-21T15:33:53.988Z,62.75
2022-10-21T15:36:20.926Z,62.63
2022-10-21T15:38:47.957Z,62.93
2022-10-21T15:41:15.922Z,62.93
2022-10-21T15:43:43.805Z,62.92
2022-10-21T15:46:12.020Z,63.04
2022-10-21T15:48:38.703Z,62.86
2022-10-21T15:51:05.240Z,63.00
2022-10-21T15:53:31.655Z,62.83
2022-10-21T15:56:00.357Z,62.80
2022-10-21T15:58:26.882Z,63.01
2022-10-21T16:00:53.495Z,62.86
2022-10-21T16:03:20.186Z,62.86
2022-10-21T16:05:47.425Z,62.92
2022-10-21T16:08:13.856Z,62.70
2022-10-21T16:10:43.817Z,62.66
2022-10-21T16:13:10.341Z,62.53
2022-10-21T16:15:36.939Z,62.61
2022-10-21T16:18:03.465Z,62.57
2022-10-21T16:20:31.083Z,62.51
2022-10-21T16:23:00.530Z,62.67
2022-10-21T16:25:29.505Z,62.56
2022-10-21T16:27:56.770Z,62.73
2022-10-21T16:30:28.641Z,62.63
2022-10-21T16:32:55.579Z,62.62
2022-10-21T16:35:22.087Z,62.60
2022-10-21T16:37:49.363Z,62.50
2022-10-21T16:40:15.822Z,62.84
2022-10-21T16:42:42.944Z,62.64
2022-10-21T16:45:10.013Z,63.06
2022-10-21T16:47:37.348Z,62.77
2022-10-21T16:50:04.617Z,62.79
2022-10-21T16:52:33.724Z,62.83
2022-10-21T16:55:00.239Z,63.23
2022-10-21T16:57:26.728Z,62.93
2022-10-21T16:59:53.179Z,63.27
2022-10-21T17:02:20.176Z,63.23
2022-10-21T17:04:47.264Z,63.32
2022-10-21T17:07:14.216Z,63.50
2022-10-21T17:09:40.690Z,63.32
2022-10-21T17:12:09.523Z,63.47
2022-10-21T17:17:02.440Z,63.02
2022-10-21T17:19:28.858Z,63.10
2022-10-21T17:21:55.335Z,63.32
2022-10-21T17:24:21.984Z,63.25
2022-10-21T17:26:48.479Z,63.53
2022-10-21T17:29:15.652Z,63.12
2022-10-21T17:31:43.416Z,63.26
2022-10-21T17:34:20.926Z,63.38
2022-10-21T17:36:47.559Z,63.43
2022-10-21T17:39:14.166Z,63.08
2022-10-21T17:41:40.724Z,63.02
2022-10-21T17:44:07.266Z,63.19
2022-10-21T17:46:33.688Z,63.20
2022-10-21T17:49:00.341Z,63.01
2022-10-21T17:51:26.996Z,63.48
2022-10-21T17:53:54.574Z,63.23
2022-10-21T17:56:21.291Z,63.26
2022-10-21T17:58:51.962Z,63.46
2022-10-21T18:01:18.804Z,63.46
2022-10-21T18:03:45.416Z,63.42
2022-10-21T18:06:12.326Z,63.47
2022-10-21T18:08:39.101Z,63.92
2022-10-21T18:11:09.775Z,63.48
2022-10-21T18:13:37.154Z,63.41
2022-10-21T18:16:22.281Z,63.23
2022-10-21T18:18:49.359Z,63.65
2022-10-21T18:21:20.255Z,63.55
2022-10-21T18:23:47.806Z,63.77
2022-10-21T18:26:16.155Z,63.71
2022-10-21T18:28:42.864Z,63.65
2022-10-21T18:31:09.287Z,63.64
2022-10-21T18:33:35.963Z,63.72
2022-10-21T18:36:10.045Z,63.90
2022-10-21T18:38:36.500Z,63.70
2022-10-21T18:41:19.658Z,64.02
2022-10-21T18:43:48.139Z,63.97
2022-10-21T18:46:14.772Z,64.00
2022-10-21T18:48:41.460Z,64.21
2022-10-21T18:51:08.681Z,64.16
2022-10-21T18:53:35.812Z,64.28
2022-10-21T18:56:05.900Z,64.38
2022-10-21T18:58:33.290Z,64.40
2022-10-21T19:01:00.038Z,64.32
2022-10-21T19:03:26.727Z,64.11
2022-10-21T19:05:53.503Z,64.13
2022-10-21T19:08:20.368Z,64.30
2022-10-21T19:10:47.355Z,64.29
2022-10-21T19:13:14.106Z,64.39
2022-10-21T19:15:41.559Z,64.65
2022-10-21T19:18:11.115Z,64.34
2022-10-21T19:20:37.581Z,64.19
2022-10-21T19:23:04.011Z,63.92
2022-10-21T19:25:30.437Z,64.23
2022-10-21T19:27:56.893Z,64.02
2022-10-21T19:30:23.460Z,64.15
2022-10-21T19:32:49.951Z,64.10
2022-10-21T19:35:16.638Z,63.79
2022-10-21T19:37:43.107Z,64.02
2022-10-21T19:40:09.718Z,64.11
2022-10-21T19:42:37.019Z,64.42
2022-10-21T19:45:03.810Z,64.10
2022-10-21T19:47:31.297Z,64.19
2022-10-21T19:49:57.969Z,64.17
2022-10-21T19:52:24.477Z,64.10
2022-10-21T19:54:52.476Z,64.16
2022-10-21T19:57:18.942Z,63.92
2022-10-21T19:59:45.673Z,64.22
2022-10-21T20:02:12.078Z,64.28
2022-10-21T20:04:38.537Z,64.79
2022-10-21T20:07:05.077Z,64.77
2022-10-21T20:09:33.891Z,64.36
2022-10-21T20:12:02.956Z,64.70
2022-10-21T20:14:29.505Z,64.85
2022-10-21T20:16:55.915Z,64.75
2022-10-21T20:19:22.401Z,64.46
2022-10-21T20:21:49.397Z,65.51
2022-10-21T20:24:16.459Z,64.78
2022-10-21T20:26:44.466Z,64.62
2022-10-21T20:29:11.370Z,64.51
2022-10-21T20:31:37.789Z,64.84
2022-10-21T20:34:04.282Z,64.73
2022-10-21T20:36:35.156Z,64.30
2022-10-21T20:39:03.054Z,64.03
2022-10-21T20:41:33.772Z,64.09
2022-10-21T20:44:00.921Z,64.33
2022-10-21T20:46:27.435Z,64.48
2022-10-21T20:48:54.542Z,64.39
2022-10-21T20:51:22.398Z,64.42
2022-10-21T20:53:50.336Z,64.50
2022-10-21T20:56:16.969Z,64.29
2022-10-21T20:58:43.543Z,64.66
2022-10-21T21:01:10.969Z,64.51
2022-10-21T21:03:42.719Z,64.56
2022-10-21T21:06:10.094Z,64.56
2022-10-21T21:08:37.376Z,64.53
2022-10-21T21:11:04.619Z,64.88
2022-10-21T21:13:31.565Z,64.62
2022-10-21T21:16:10.493Z,64.83
2022-10-21T21:18:38.178Z,64.84
2022-10-21T21:21:04.753Z,64.82
2022-10-21T21:23:31.373Z,65.00
2022-10-21T21:26:09.195Z,65.01
2022-10-21T21:28:39.086Z,64.68
2022-10-21T21:31:06.554Z,64.96
2022-10-21T21:33:33.276Z,64.88
2022-10-21T21:35:59.980Z,64.76
2022-10-21T21:38:27.608Z,64.86
2022-10-21T21:40:54.182Z,64.78
2022-10-21T21:43:22.246Z,64.69
2022-10-21T21:45:48.895Z,64.84
2022-10-21T21:50:43.750Z,64.82
2022-10-21T21:53:11.123Z,64.94
2022-10-21T21:55:37.783Z,64.84
2022-10-21T21:58:04.492Z,64.80
2022-10-21T22:00:30.980Z,64.98
2022-10-21T22:02:57.474Z,64.74
2022-10-21T22:05:27.053Z,64.97
2022-10-21T22:07:53.647Z,65.08
2022-10-21T22:10:20.212Z,64.98
2022-10-21T22:12:46.732Z,65.13
2022-10-21T22:15:29.696Z,65.01
2022-10-21T22:18:00.753Z,65.00
2022-10-21T22:20:27.249Z,65.09
2022-10-21T22:22:53.712Z,64.85
2022-10-21T22:25:20.191Z,64.78
2022-10-21T22:27:46.627Z,64.85
2022-10-21T22:30:14.426Z,65.05
2022-10-21T22:32:41.138Z,64.77
2022-10-21T22:35:08.578Z,64.88
2022-10-21T22:37:35.193Z,65.10
2022-10-21T22:40:01.672Z,65.23
2022-10-21T22:42:28.155Z,65.55
2022-10-21T22:44:54.580Z,65.61
2022-10-21T22:47:23.511Z,65.55
2022-10-21T22:49:50.463Z,65.34
2022-10-21T22:52:17.818Z,65.15
2022-10-21T22:54:49.616Z,65.30
2022-10-21T22:57:16.886Z,65.37
2022-10-21T22:59:44.295Z,65.42
2022-10-21T23:02:11.530Z,65.54
2022-10-21T23:04:38.022Z,65.34
2022-10-21T23:07:04.592Z,65.91
2022-10-21T23:09:32.288Z,65.48
2022-10-21T23:11:58.776Z,65.41
2022-10-21T23:14:25.408Z,65.49
2022-10-21T23:16:52.504Z,65.92
2022-10-21T23:19:19.303Z,65.79
2022-10-21T23:21:45.798Z,65.84
2022-10-21T23:24:12.281Z,65.80
2022-10-21T23:26:38.811Z,66.05
2022-10-21T23:29:05.712Z,66.03
2022-10-21T23:31:32.228Z,65.93
2022-10-21T23:33:58.845Z,66.07
2022-10-21T23:36:25.461Z,66.23
2022-10-21T23:38:55.556Z,66.06
2022-10-21T23:41:22.295Z,66.26
2022-10-21T23:43:48.815Z,66.62
2022-10-21T23:46:15.409Z,66.57
2022-10-21T23:48:42.087Z,66.45
2022-10-21T23:51:08.668Z,66.32
2022-10-21T23:53:35.307Z,66.12
2022-10-21T23:56:01.755Z,65.95
2022-10-21T23:58:28.229Z,65.89
